createdAt,value
2019-04-16T00:02:40.461Z,69.47
2019-04-16T00:05:17.007Z,72.37
2019-04-16T00:07:52.328Z,65.67
2019-04-16T00:10:45.295Z,63.60
2019-04-16T00:13:26.335Z,67.93
2019-04-16T00:15:57.702Z,74.57
2019-04-16T00:18:27.901Z,70.63
2019-04-16T00:21:06.464Z,67.13
2019-04-16T00:24:03.200Z,71.33
2019-04-16T00:26:57.804Z,65.23
2019-04-16T00:29:44.732Z,64.87
2019-04-16T00:32:26.985Z,68.57
2019-04-16T00:34:58.370Z,66.87
2019-04-16T00:40:26.723Z,64.93
2019-04-16T00:42:59.560Z,65.90
2019-04-16T00:45:34.232Z,69.10
2019-04-16T00:48:06.028Z,70.43
2019-04-16T00:50:44.593Z,66.50
2019-04-16T00:53:27.265Z,80.67
2019-04-16T00:55:59.977Z,68.50
2019-04-16T00:58:30.888Z,71.73
2019-04-16T01:01:00.951Z,72.70
2019-04-16T01:03:31.759Z,78.07
2019-04-16T01:06:06.767Z,65.27
2019-04-16T01:11:25.529Z,70.33
2019-04-16T01:13:57.289Z,66.43
2019-04-16T01:16:26.984Z,71.23
2019-04-16T01:19:15.731Z,73.17
2019-04-16T01:30:54.134Z,69.33
2019-04-16T01:42:26.148Z,67.17
2019-04-16T01:44:59.383Z,69.87
2019-04-16T01:47:35.922Z,69.43
2019-04-16T01:50:05.638Z,72.73
2019-04-16T01:52:34.535Z,70.27
2019-04-16T01:55:06.134Z,69.73
2019-04-16T02:00:43.091Z,62.33
2019-04-16T02:03:41.554Z,66.27
2019-04-16T02:40:15.799Z,68.73
2019-04-16T02:42:40.413Z,72.20
2019-04-16T02:45:13.256Z,66.47
2019-04-16T02:50:36.724Z,66.03
2019-04-16T02:53:09.362Z,68.47
2019-04-16T02:55:46.733Z,69.53
2019-04-16T02:58:34.049Z,74.93
2019-04-16T03:01:11.854Z,70.30
2019-04-16T03:03:44.125Z,66.60
2019-04-16T03:06:13.840Z,71.17
2019-04-16T03:08:45.389Z,67.43
2019-04-16T03:11:18.615Z,66.27
2019-04-16T03:13:48.135Z,67.33
2019-04-16T03:22:02.154Z,72.33
2019-04-16T03:24:32.262Z,73.53
2019-04-16T03:27:05.200Z,64.90
2019-04-16T03:29:40.354Z,74.43
2019-04-16T03:32:14.282Z,72.93
2019-04-16T03:34:43.393Z,74.43
2019-04-16T03:37:12.565Z,69.17
2019-04-16T03:39:44.737Z,66.47
2019-04-16T03:42:14.305Z,65.53
2019-04-16T03:44:45.096Z,69.80
2019-04-16T03:47:23.288Z,66.53
2019-04-16T03:49:56.367Z,70.30
2019-04-16T03:52:30.283Z,68.73
2019-04-16T03:55:01.013Z,68.40
2019-04-16T03:57:32.722Z,66.87
2019-04-16T04:00:02.118Z,67.33
2019-04-16T04:02:34.369Z,61.83
2019-04-16T04:05:24.575Z,63.40
2019-04-16T04:07:57.721Z,66.57
2019-04-16T04:10:30.673Z,68.47
2019-04-16T04:13:04.917Z,69.47
2019-04-16T04:18:29.360Z,65.07
2019-04-16T04:24:02.547Z,71.67
2019-04-16T04:26:33.933Z,69.67
2019-04-16T04:29:06.623Z,76.13
2019-04-16T04:31:38.238Z,73.90
2019-04-16T04:34:10.752Z,67.97
2019-04-16T04:36:39.980Z,74.70
2019-04-16T04:39:15.297Z,66.93
2019-04-16T04:41:44.881Z,63.23
2019-04-16T04:44:21.065Z,71.13
2019-04-16T04:46:50.260Z,67.10
2019-04-16T04:49:22.843Z,64.93
2019-04-16T04:51:52.666Z,66.97
2019-04-16T04:54:28.556Z,70.17
2019-04-16T04:57:00.927Z,70.60
2019-04-16T04:59:31.460Z,66.83
2019-04-16T05:02:00.924Z,65.30
2019-04-16T05:04:38.167Z,64.83
2019-04-16T05:07:10.558Z,70.30
2019-04-16T05:09:46.423Z,69.17
2019-04-16T05:12:17.823Z,71.17
2019-04-16T05:14:58.439Z,69.70
2019-04-16T05:17:38.374Z,64.53
2019-04-16T05:35:25.830Z,63.97
2019-04-16T05:38:03.570Z,64.40
2019-04-16T05:40:36.022Z,65.33
2019-04-16T05:51:42.333Z,69.17
2019-04-16T05:57:45.647Z,67.43
2019-04-16T06:09:30.922Z,62.80
2019-04-16T06:21:19.210Z,66.03
2019-04-16T06:24:08.337Z,67.27
2019-04-16T06:26:39.904Z,64.37
2019-04-16T06:29:17.193Z,64.33
2019-04-16T06:31:56.685Z,65.40
2019-04-16T06:34:27.816Z,62.87
2019-04-16T06:37:09.065Z,58.70
2019-04-16T06:42:46.987Z,57.33
2019-04-16T06:45:25.451Z,59.83
2019-04-16T06:50:50.666Z,58.70
2019-04-16T06:53:30.935Z,53.87
2019-04-16T06:56:08.807Z,52.13
2019-04-16T06:58:57.225Z,57.57
2019-04-16T07:01:43.489Z,56.87
2019-04-16T07:04:29.508Z,52.20
2019-04-16T07:23:11.614Z,49.20
2019-04-16T07:25:50.297Z,50.20
2019-04-16T07:32:06.814Z,54.73
2019-04-16T07:34:53.632Z,48.67
2019-04-16T07:37:26.570Z,47.80
2019-04-16T09:45:01.845Z,40.77
2019-04-16T10:01:11.682Z,40.60
2019-04-16T10:10:16.158Z,42.03
2019-04-16T10:12:50.715Z,39.60
2019-04-16T10:18:13.107Z,39.93
2019-04-16T10:20:51.345Z,45.80
2019-04-16T10:23:33.589Z,40.10
2019-04-16T10:26:03.172Z,38.53
2019-04-16T10:28:39.978Z,39.57
2019-04-16T10:31:12.827Z,39.47
2019-04-16T10:33:44.847Z,40.43
2019-04-16T10:36:22.044Z,41.33
2019-04-16T10:48:23.261Z,38.83
2019-04-16T13:31:53.466Z,35.83
2019-04-16T13:45:16.981Z,33.73
2019-04-16T14:21:47.646Z,35.60
2019-04-16T14:24:17.223Z,34.53
2019-04-16T14:26:50.464Z,32.87
2019-04-16T14:29:42.934Z,31.40
2019-04-16T14:52:57.600Z,31.40
2019-04-16T14:55:31.578Z,32.37
2019-04-16T14:58:19.201Z,30.97
2019-04-16T15:00:56.627Z,30.37
2019-04-16T15:03:27.176Z,32.90
2019-04-16T15:06:03.759Z,32.70
2019-04-16T15:08:50.235Z,33.03
2019-04-16T15:11:23.725Z,31.17
2019-04-16T16:01:24.344Z,30.03
2019-04-16T16:24:29.571Z,30.47
2019-04-16T16:27:00.391Z,29.43
2019-04-16T16:29:30.497Z,29.23
2019-04-16T16:31:59.609Z,28.60
2019-04-16T16:37:29.333Z,29.70
2019-04-16T16:50:51.739Z,28.73
2019-04-16T17:13:04.627Z,30.80
2019-04-16T17:21:34.770Z,28.40
2019-04-16T17:24:08.946Z,28.90
2019-04-16T17:29:35.417Z,29.23
2019-04-16T20:30:23.112Z,34.60
